createdAt,value
2023-03-20T00:01:48.899Z,8.33
2023-03-20T00:04:15.598Z,8.24
2023-03-20T00:06:42.251Z,8.26
2023-03-20T00:09:08.819Z,8.29
2023-03-20T00:11:40.008Z,8.23
2023-03-20T00:14:12.825Z,8.10
2023-03-20T00:16:42.951Z,8.08
2023-03-20T00:19:22.694Z,8.15
2023-03-20T00:21:50.590Z,8.17
2023-03-20T00:24:17.781Z,8.20
2023-03-20T00:26:46.010Z,8.19
2023-03-20T00:29:28.278Z,8.06
2023-03-20T00:31:55.684Z,8.07
2023-03-20T00:34:24.755Z,8.04
2023-03-20T00:36:52.026Z,8.05
2023-03-20T00:39:22.139Z,8.11
2023-03-20T00:41:57.352Z,8.15
2023-03-20T00:44:37.027Z,8.14
2023-03-20T00:47:12.326Z,8.06
2023-03-20T00:49:38.973Z,8.09
2023-03-20T00:52:06.336Z,8.15
2023-03-20T00:54:32.999Z,8.16
2023-03-20T00:57:02.018Z,8.30
2023-03-20T00:59:33.784Z,8.30
2023-03-20T01:02:02.744Z,8.24
2023-03-20T01:04:36.379Z,8.26
2023-03-20T01:07:03.819Z,8.18
2023-03-20T01:09:30.499Z,8.11
2023-03-20T01:11:59.725Z,8.05
2023-03-20T01:14:26.403Z,8.01
2023-03-20T01:16:53.113Z,8.06
2023-03-20T01:19:19.714Z,8.09
2023-03-20T01:21:48.329Z,8.05
2023-03-20T01:24:15.122Z,7.92
2023-03-20T01:26:43.613Z,7.83
2023-03-20T01:29:21.168Z,7.89
2023-03-20T01:31:48.180Z,7.87
2023-03-20T01:34:14.884Z,7.78
2023-03-20T01:36:53.767Z,7.88
2023-03-20T01:39:21.870Z,7.94
2023-03-20T01:41:49.166Z,7.94
2023-03-20T01:44:25.217Z,8.00
2023-03-20T01:46:53.247Z,8.04
2023-03-20T01:49:19.850Z,8.08
2023-03-20T01:51:47.843Z,8.11
2023-03-20T01:54:38.158Z,8.14
2023-03-20T01:57:20.640Z,8.14
2023-03-20T01:59:51.865Z,8.13
2023-03-20T02:02:23.719Z,8.00
2023-03-20T02:04:57.964Z,8.00
2023-03-20T02:07:24.729Z,8.02
2023-03-20T02:09:51.993Z,7.93
2023-03-20T02:12:21.751Z,7.97
2023-03-20T02:14:49.367Z,8.08
2023-03-20T02:17:16.348Z,7.99
2023-03-20T02:20:20.860Z,8.01
2023-03-20T02:23:15.358Z,7.99
2023-03-20T02:25:59.760Z,8.07
2023-03-20T02:28:39.812Z,8.09
2023-03-20T02:31:31.312Z,8.12
2023-03-20T02:34:35.349Z,8.14
2023-03-20T02:37:51.137Z,8.07
2023-03-20T02:40:30.258Z,8.05
2023-03-20T02:43:21.660Z,8.07
2023-03-20T02:46:06.851Z,7.94
2023-03-20T02:48:58.344Z,7.98
2023-03-20T02:52:09.133Z,8.03
2023-03-20T02:54:52.083Z,7.97
2023-03-20T02:57:30.170Z,8.01
2023-03-20T03:00:04.399Z,7.99
2023-03-20T03:02:38.587Z,7.95
2023-03-20T03:05:15.651Z,7.94
2023-03-20T03:07:45.612Z,7.97
2023-03-20T03:10:19.645Z,7.93
2023-03-20T03:12:48.939Z,7.95
2023-03-20T03:15:27.669Z,7.99
2023-03-20T03:17:56.115Z,7.87
2023-03-20T03:20:28.116Z,8.05
2023-03-20T03:22:54.828Z,8.05
2023-03-20T03:25:25.657Z,8.02
2023-03-20T03:28:36.862Z,8.08
2023-03-20T03:31:12.882Z,8.16
2023-03-20T03:33:43.047Z,8.08
2023-03-20T03:36:36.911Z,8.13
2023-03-20T03:39:20.825Z,8.14
2023-03-20T03:42:26.035Z,8.10
2023-03-20T03:45:14.846Z,8.10
2023-03-20T03:47:46.390Z,8.18
2023-03-20T03:50:23.601Z,8.10
2023-03-20T03:52:52.505Z,8.04
2023-03-20T03:55:26.326Z,8.07
2023-03-20T03:57:59.186Z,8.08
2023-03-20T04:00:30.971Z,8.01
2023-03-20T04:03:00.462Z,7.91
2023-03-20T04:05:30.812Z,7.85
2023-03-20T04:08:01.276Z,7.94
2023-03-20T04:10:27.978Z,7.97
2023-03-20T04:12:54.669Z,8.05
2023-03-20T04:15:21.402Z,8.05
2023-03-20T04:17:48.016Z,8.00
2023-03-20T04:20:15.570Z,8.07
2023-03-20T04:22:45.545Z,8.00
2023-03-20T04:25:21.427Z,8.03
2023-03-20T04:27:47.965Z,8.05
2023-03-20T04:30:14.707Z,8.11
2023-03-20T04:32:41.266Z,8.11
2023-03-20T04:35:08.458Z,8.10
2023-03-20T04:37:35.270Z,8.10
2023-03-20T04:40:02.052Z,8.18
2023-03-20T04:42:28.627Z,8.08
2023-03-20T04:44:55.283Z,8.08
2023-03-20T04:47:21.843Z,8.09
2023-03-20T04:49:48.337Z,8.09
2023-03-20T04:52:15.014Z,8.08
2023-03-20T04:54:41.538Z,8.04
2023-03-20T04:57:08.090Z,8.05
2023-03-20T04:59:34.736Z,8.08
2023-03-20T05:02:02.733Z,8.00
2023-03-20T05:04:29.400Z,7.85
2023-03-20T05:06:56.198Z,7.86
2023-03-20T05:09:22.833Z,7.95
2023-03-20T05:11:49.423Z,8.00
2023-03-20T05:14:18.107Z,7.97
2023-03-20T05:16:44.732Z,7.95
2023-03-20T05:19:11.417Z,7.89
2023-03-20T05:21:40.477Z,7.91
2023-03-20T05:24:07.613Z,7.85
2023-03-20T05:26:34.321Z,7.84
2023-03-20T05:29:02.009Z,7.83
2023-03-20T05:31:28.685Z,7.80
2023-03-20T05:33:57.837Z,7.88
2023-03-20T05:36:24.505Z,7.79
2023-03-20T05:38:51.130Z,7.87
2023-03-20T05:41:17.685Z,7.85
2023-03-20T05:43:44.507Z,7.94
2023-03-20T05:46:13.644Z,7.91
2023-03-20T05:48:40.388Z,8.05
2023-03-20T05:51:10.348Z,8.13
2023-03-20T05:53:36.979Z,8.20
2023-03-20T05:56:03.724Z,8.28
2023-03-20T05:58:30.396Z,8.33
2023-03-20T06:00:58.283Z,8.35
2023-03-20T06:03:24.921Z,8.26
2023-03-20T06:05:51.563Z,8.39
2023-03-20T06:08:18.163Z,8.36
2023-03-20T06:10:44.873Z,8.40
2023-03-20T06:13:11.628Z,8.49
2023-03-20T06:15:40.732Z,8.41
2023-03-20T06:18:07.680Z,8.59
2023-03-20T06:20:34.404Z,8.51
2023-03-20T06:23:01.058Z,8.70
2023-03-20T06:25:27.820Z,8.70
2023-03-20T06:27:54.450Z,8.65
2023-03-20T06:30:22.099Z,8.73
2023-03-20T06:32:48.704Z,8.87
2023-03-20T06:35:24.276Z,8.90
2023-03-20T06:37:53.776Z,9.04
2023-03-20T06:40:20.497Z,9.17
2023-03-20T06:42:47.143Z,9.18
2023-03-20T06:45:13.788Z,9.21
2023-03-20T06:47:42.752Z,9.35
2023-03-20T06:50:14.390Z,9.41
2023-03-20T06:52:41.632Z,9.49
2023-03-20T06:55:08.901Z,9.53
2023-03-20T06:57:35.628Z,9.53
2023-03-20T07:00:06.199Z,9.61
2023-03-20T07:02:34.687Z,9.73
2023-03-20T07:05:01.619Z,9.77
2023-03-20T07:07:28.306Z,9.79
2023-03-20T07:09:54.916Z,9.88
2023-03-20T07:12:21.835Z,9.99
2023-03-20T07:14:48.613Z,10.13
2023-03-20T07:17:15.283Z,10.29
2023-03-20T07:19:42.080Z,10.40
2023-03-20T07:22:17.256Z,10.47
2023-03-20T07:24:46.726Z,10.52
2023-03-20T07:27:13.902Z,10.65
2023-03-20T07:29:40.505Z,10.91
2023-03-20T07:32:07.108Z,11.35
2023-03-20T07:34:34.113Z,11.57
2023-03-20T07:37:00.908Z,11.75
2023-03-20T07:39:27.633Z,12.17
2023-03-20T07:41:54.379Z,12.17
2023-03-20T07:44:27.086Z,12.75
2023-03-20T07:46:54.059Z,13.02
2023-03-20T07:49:20.924Z,13.24
2023-03-20T07:51:49.680Z,13.23
2023-03-20T07:54:17.703Z,13.50
2023-03-20T07:56:45.903Z,13.77
2023-03-20T07:59:13.705Z,13.63
2023-03-20T08:01:44.885Z,14.12
2023-03-20T08:04:14.580Z,14.10
2023-03-20T08:06:41.244Z,14.77
2023-03-20T08:09:13.198Z,14.92
2023-03-20T08:11:39.936Z,15.50
2023-03-20T08:14:06.860Z,15.29
2023-03-20T08:16:36.807Z,15.18
2023-03-20T08:19:12.113Z,15.33
2023-03-20T08:21:47.438Z,15.18
2023-03-20T08:24:14.440Z,15.30
2023-03-20T08:26:47.421Z,15.14
2023-03-20T08:29:17.033Z,15.17
2023-03-20T08:31:46.526Z,15.45
2023-03-20T08:34:13.108Z,15.59
2023-03-20T08:36:42.680Z,15.78
2023-03-20T08:39:09.546Z,15.34
2023-03-20T08:41:43.129Z,15.82
2023-03-20T08:44:35.110Z,16.10
2023-03-20T08:47:02.609Z,16.19
2023-03-20T08:49:35.345Z,16.12
2023-03-20T08:52:05.432Z,16.32
2023-03-20T08:54:32.275Z,16.44
2023-03-20T08:56:58.817Z,16.54
2023-03-20T08:59:30.295Z,16.40
2023-03-20T09:01:57.798Z,16.75
2023-03-20T09:04:27.813Z,17.14
2023-03-20T09:06:54.528Z,16.69
2023-03-20T09:09:21.135Z,16.79
2023-03-20T09:11:49.477Z,16.92
2023-03-20T09:14:16.064Z,16.96
2023-03-20T09:16:42.668Z,16.95
2023-03-20T09:19:09.700Z,17.24
2023-03-20T09:21:38.231Z,17.36
2023-03-20T09:24:08.252Z,17.20
2023-03-20T09:26:38.972Z,17.29
2023-03-20T09:29:07.121Z,17.42
2023-03-20T09:31:33.855Z,17.64
2023-03-20T09:34:04.055Z,17.90
2023-03-20T09:36:32.142Z,17.96
2023-03-20T09:38:59.335Z,18.69
2023-03-20T09:41:29.621Z,19.13
2023-03-20T09:44:23.082Z,19.81
2023-03-20T09:47:18.880Z,20.53
2023-03-20T09:50:10.318Z,20.50
2023-03-20T09:52:46.455Z,21.17
2023-03-20T09:55:16.443Z,21.94
2023-03-20T09:57:47.586Z,22.42
2023-03-20T10:00:28.042Z,23.02
2023-03-20T10:03:01.949Z,23.78
2023-03-20T10:05:32.950Z,23.83
2023-03-20T10:08:07.404Z,22.60
2023-03-20T10:11:12.717Z,23.83
2023-03-20T10:13:56.214Z,23.54
2023-03-20T10:16:56.026Z,23.56
2023-03-20T10:19:32.699Z,23.49
2023-03-20T10:22:31.682Z,24.84
2023-03-20T10:25:22.341Z,25.05
2023-03-20T10:28:06.282Z,26.14
2023-03-20T10:30:44.347Z,26.34
2023-03-20T10:33:43.889Z,25.44
2023-03-20T10:37:25.027Z,24.99
2023-03-20T10:39:56.140Z,25.88
2023-03-20T10:42:30.672Z,26.20
2023-03-20T10:45:14.031Z,26.65
2023-03-20T10:47:47.477Z,27.42
2023-03-20T10:50:23.579Z,26.85
2023-03-20T10:52:54.000Z,26.82
2023-03-20T10:55:32.247Z,28.69
2023-03-20T10:58:23.332Z,27.97
2023-03-20T11:00:50.496Z,28.58
2023-03-20T11:03:29.195Z,27.80
2023-03-20T11:06:09.665Z,28.02
2023-03-20T11:08:42.060Z,27.52
2023-03-20T11:11:09.496Z,28.07
2023-03-20T11:13:41.180Z,28.40
2023-03-20T11:16:31.553Z,28.56
2023-03-20T11:19:06.103Z,28.56
2023-03-20T11:21:35.506Z,28.47
2023-03-20T11:24:02.841Z,28.89
2023-03-20T11:26:40.669Z,30.10
2023-03-20T11:29:26.067Z,31.13
2023-03-20T11:31:52.706Z,32.85
2023-03-20T11:34:19.169Z,31.98
2023-03-20T11:37:08.585Z,27.89
2023-03-20T11:39:36.606Z,26.53
2023-03-20T11:42:03.762Z,25.64
2023-03-20T11:44:33.457Z,23.92
2023-03-20T11:47:19.515Z,23.22
2023-03-20T11:49:59.676Z,22.86
2023-03-20T11:52:33.423Z,22.31
2023-03-20T11:55:05.128Z,21.71
2023-03-20T11:57:40.959Z,21.99
2023-03-20T12:00:24.496Z,21.88
2023-03-20T12:02:51.655Z,21.41
2023-03-20T12:05:33.264Z,21.35
2023-03-20T12:08:27.440Z,21.31
2023-03-20T12:10:59.764Z,21.38
2023-03-20T12:13:31.342Z,21.07
2023-03-20T12:16:05.376Z,21.15
2023-03-20T12:18:38.713Z,21.19
2023-03-20T12:21:14.480Z,21.34
2023-03-20T12:23:46.881Z,21.37
2023-03-20T12:26:28.886Z,21.48
2023-03-20T12:29:24.837Z,21.38
2023-03-20T12:31:53.701Z,21.25
2023-03-20T12:34:34.089Z,20.93
2023-03-20T12:37:01.297Z,20.77
2023-03-20T12:39:38.253Z,20.48
2023-03-20T12:42:26.474Z,20.27
2023-03-20T12:45:01.151Z,20.11
2023-03-20T12:47:49.903Z,19.93
2023-03-20T12:50:33.745Z,19.84
2023-03-20T12:53:32.733Z,19.63
2023-03-20T12:56:14.256Z,19.58
2023-03-20T12:59:03.517Z,19.65
2023-03-20T13:01:40.210Z,19.59
2023-03-20T13:04:18.598Z,19.59
2023-03-20T13:06:53.864Z,19.51
2023-03-20T13:09:48.008Z,19.21
2023-03-20T13:12:48.206Z,19.28
2023-03-20T13:15:28.020Z,19.47
2023-03-20T13:18:00.197Z,19.58
2023-03-20T13:20:30.505Z,19.66
2023-03-20T13:23:05.998Z,19.70
2023-03-20T13:25:38.390Z,19.68
2023-03-20T13:28:23.820Z,19.63
2023-03-20T13:30:56.858Z,19.61
2023-03-20T13:33:36.442Z,19.68
2023-03-20T13:36:02.965Z,19.77
2023-03-20T13:38:40.568Z,19.72
2023-03-20T13:41:11.991Z,19.59
2023-03-20T13:43:47.698Z,19.24
2023-03-20T13:46:19.872Z,19.41
2023-03-20T13:48:47.208Z,19.35
2023-03-20T13:51:58.435Z,19.35
2023-03-20T13:54:41.048Z,19.16
2023-03-20T13:57:13.984Z,19.03
2023-03-20T13:59:47.599Z,18.93
2023-03-20T14:02:35.777Z,18.74
2023-03-20T14:05:14.217Z,18.78
2023-03-20T14:07:44.199Z,18.76
2023-03-20T14:10:23.200Z,18.80
2023-03-20T14:13:01.731Z,18.73
2023-03-20T14:15:36.369Z,18.81
2023-03-20T14:18:28.639Z,18.73
2023-03-20T14:21:12.723Z,18.74
2023-03-20T14:23:48.085Z,18.78
2023-03-20T14:26:29.210Z,18.78
2023-03-20T14:29:32.281Z,18.69
2023-03-20T14:32:16.123Z,18.41
2023-03-20T14:35:12.127Z,18.51
2023-03-20T14:38:00.216Z,18.48
2023-03-20T14:40:31.270Z,18.31
2023-03-20T14:43:05.230Z,18.28
2023-03-20T14:45:37.381Z,18.09
2023-03-20T14:48:26.903Z,18.07
2023-03-20T14:51:19.680Z,17.98
2023-03-20T14:53:57.796Z,18.02
2023-03-20T14:56:34.315Z,18.02
2023-03-20T14:59:10.948Z,17.99
2023-03-20T15:01:40.275Z,17.94
2023-03-20T15:04:31.488Z,17.89
2023-03-20T15:07:04.596Z,17.91
2023-03-20T15:09:34.966Z,17.81
2023-03-20T15:12:03.442Z,17.61
2023-03-20T15:14:36.042Z,17.51
2023-03-20T15:17:04.198Z,17.42
2023-03-20T15:19:31.241Z,17.38
2023-03-20T15:21:57.951Z,17.26
2023-03-20T15:24:29.390Z,17.25
2023-03-20T15:26:58.863Z,17.26
2023-03-20T15:29:26.440Z,17.13
2023-03-20T15:32:12.865Z,17.06
2023-03-20T15:34:42.055Z,16.95
2023-03-20T15:37:14.475Z,16.86
2023-03-20T15:39:50.119Z,16.84
2023-03-20T15:42:19.653Z,16.80
2023-03-20T15:44:48.548Z,16.72
2023-03-20T15:47:21.289Z,16.68
2023-03-20T15:50:00.369Z,16.55
2023-03-20T15:52:42.161Z,16.44
2023-03-20T15:55:16.905Z,16.47
2023-03-20T15:57:44.626Z,16.34
2023-03-20T16:00:30.503Z,16.28
2023-03-20T16:02:59.522Z,16.26
2023-03-20T16:05:28.936Z,16.19
2023-03-20T16:07:56.306Z,16.13
2023-03-20T16:10:31.795Z,16.02
2023-03-20T16:12:58.818Z,15.95
2023-03-20T16:15:28.364Z,15.92
2023-03-20T16:17:57.500Z,15.85
2023-03-20T16:20:27.429Z,15.78
2023-03-20T16:23:01.710Z,15.73
2023-03-20T16:25:28.761Z,15.66
2023-03-20T16:27:55.463Z,15.57
2023-03-20T16:30:30.269Z,15.53
2023-03-20T16:33:11.898Z,15.46
2023-03-20T16:35:43.736Z,15.40
2023-03-20T16:38:24.503Z,15.37
2023-03-20T16:40:55.581Z,15.30
2023-03-20T16:43:32.179Z,15.25
2023-03-20T16:46:07.011Z,15.16
2023-03-20T16:48:35.237Z,15.09
2023-03-20T16:51:31.736Z,15.01
2023-03-20T16:54:00.258Z,14.96
2023-03-20T16:56:33.681Z,14.89
2023-03-20T16:59:08.194Z,14.83
2023-03-20T17:01:34.966Z,14.75
2023-03-20T17:04:20.425Z,14.67
2023-03-20T17:06:54.305Z,14.60
2023-03-20T17:09:23.029Z,14.54
2023-03-20T17:11:57.915Z,14.50
2023-03-20T17:14:24.677Z,14.48
2023-03-20T17:16:52.828Z,14.46
2023-03-20T17:19:20.513Z,14.35
2023-03-20T17:21:47.965Z,14.30
2023-03-20T17:24:16.007Z,14.23
2023-03-20T17:26:46.435Z,14.18
2023-03-20T17:29:13.690Z,14.11
2023-03-20T17:31:40.315Z,14.08
2023-03-20T17:34:06.904Z,14.00
2023-03-20T17:36:34.779Z,14.01
2023-03-20T17:39:01.760Z,14.03
2023-03-20T17:41:28.838Z,13.99
2023-03-20T17:43:55.395Z,13.93
2023-03-20T17:46:27.959Z,13.81
2023-03-20T17:49:27.263Z,13.71
2023-03-20T17:51:54.673Z,13.65
2023-03-20T17:54:21.427Z,13.62
2023-03-20T17:56:50.468Z,13.58
2023-03-20T17:59:17.051Z,13.51
2023-03-20T18:01:43.733Z,13.43
2023-03-20T18:04:10.359Z,13.46
2023-03-20T18:06:37.136Z,13.45
2023-03-20T18:09:05.015Z,13.40
2023-03-20T18:11:32.252Z,13.36
2023-03-20T18:13:58.956Z,13.26
2023-03-20T18:16:26.974Z,13.26
2023-03-20T18:18:53.789Z,13.19
2023-03-20T18:21:20.496Z,13.16
2023-03-20T18:23:47.153Z,13.20
2023-03-20T18:26:22.408Z,13.15
2023-03-20T18:28:51.083Z,13.12
2023-03-20T18:31:17.868Z,13.13
2023-03-20T18:33:49.645Z,13.09
2023-03-20T18:36:21.282Z,13.02
2023-03-20T18:38:48.586Z,12.95
2023-03-20T18:41:15.370Z,12.90
2023-03-20T18:43:42.935Z,12.87
2023-03-20T18:46:20.381Z,12.80
2023-03-20T18:48:48.262Z,12.71
2023-03-20T18:51:14.988Z,12.65
2023-03-20T18:53:42.085Z,12.64
2023-03-20T18:56:17.376Z,12.69
2023-03-20T18:58:44.571Z,12.64
2023-03-20T19:01:11.556Z,12.55
2023-03-20T19:03:39.646Z,12.47
2023-03-20T19:06:10.796Z,12.41
2023-03-20T19:08:37.454Z,12.40
2023-03-20T19:11:04.301Z,12.41
2023-03-20T19:13:31.151Z,12.42
2023-03-20T19:15:57.709Z,12.35
2023-03-20T19:18:26.387Z,12.30
2023-03-20T19:20:57.487Z,12.25
2023-03-20T19:23:26.115Z,12.23
2023-03-20T19:25:54.509Z,12.22
2023-03-20T19:28:37.611Z,12.16
2023-03-20T19:31:05.827Z,12.08
2023-03-20T19:33:32.508Z,12.13
2023-03-20T19:36:03.226Z,12.08
2023-03-20T19:38:30.462Z,12.08
2023-03-20T19:40:57.911Z,12.07
2023-03-20T19:43:24.916Z,12.07
2023-03-20T19:45:52.719Z,11.97
2023-03-20T19:48:22.468Z,11.79
2023-03-20T19:50:51.198Z,11.80
2023-03-20T19:53:20.223Z,11.75
2023-03-20T19:55:47.271Z,11.68
2023-03-20T19:58:14.026Z,11.58
2023-03-20T20:00:59.359Z,11.52
2023-03-20T20:03:27.388Z,11.50
2023-03-20T20:05:54.781Z,11.40
2023-03-20T20:08:43.872Z,11.29
2023-03-20T20:11:08.855Z,11.26
2023-03-20T20:13:47.121Z,11.25
2023-03-20T20:16:21.980Z,11.16
2023-03-20T20:18:48.564Z,11.16
2023-03-20T20:24:01.771Z,10.99
2023-03-20T20:26:31.050Z,10.94
2023-03-20T20:28:57.771Z,10.83
2023-03-20T20:31:31.217Z,10.77
2023-03-20T20:34:26.896Z,10.85
2023-03-20T20:37:29.104Z,10.79
2023-03-20T20:39:31.086Z,10.73
2023-03-20T20:41:57.723Z,10.72
2023-03-20T20:44:24.285Z,10.62
2023-03-20T20:46:50.843Z,10.51
2023-03-20T20:49:19.889Z,10.39
2023-03-20T20:51:47.328Z,10.34
2023-03-20T20:54:13.998Z,10.35
2023-03-20T20:56:40.828Z,10.25
2023-03-20T20:59:07.960Z,10.25
2023-03-20T21:01:34.772Z,10.23
2023-03-20T21:04:01.530Z,10.28
2023-03-20T21:06:50.795Z,10.29
2023-03-20T21:09:14.837Z,10.16
2023-03-20T21:11:41.446Z,10.16
2023-03-20T21:14:08.026Z,10.12
2023-03-20T21:16:34.756Z,10.08
2023-03-20T21:19:01.311Z,10.10
2023-03-20T21:21:27.895Z,10.02
2023-03-20T21:23:55.333Z,9.97
2023-03-20T21:26:21.991Z,9.97
2023-03-20T21:28:48.604Z,9.83
2023-03-20T21:31:25.882Z,9.81
2023-03-20T21:33:54.666Z,9.86
2023-03-20T21:36:23.455Z,9.83
2023-03-20T21:39:07.270Z,9.80
2023-03-20T21:41:36.277Z,9.65
2023-03-20T21:44:03.743Z,9.66
2023-03-20T21:47:03.883Z,9.66
2023-03-20T21:52:48.893Z,9.41
2023-03-20T21:55:41.022Z,9.35
2023-03-20T21:58:17.702Z,9.28
2023-03-20T22:03:18.420Z,9.07
2023-03-20T22:06:37.319Z,9.10
2023-03-20T22:12:08.599Z,9.08
2023-03-20T22:15:01.228Z,9.09
2023-03-20T22:20:35.367Z,8.99
2023-03-20T22:29:07.110Z,8.93
2023-03-20T22:31:47.029Z,8.78
2023-03-20T22:39:58.597Z,8.64
2023-03-20T22:44:59.865Z,8.63
2023-03-20T22:47:27.525Z,8.58
2023-03-20T22:49:54.210Z,8.49
2023-03-20T22:52:31.845Z,8.45
2023-03-20T22:55:05.378Z,8.46
2023-03-20T22:57:42.441Z,8.28
2023-03-20T23:00:15.068Z,8.17
2023-03-20T23:02:41.777Z,8.09
2023-03-20T23:05:09.684Z,8.21
2023-03-20T23:07:37.309Z,8.20
2023-03-20T23:10:06.085Z,8.21
2023-03-20T23:12:32.951Z,8.17
2023-03-20T23:14:59.490Z,8.02
2023-03-20T23:17:26.047Z,8.03
2023-03-20T23:20:04.915Z,7.98
2023-03-20T23:22:35.396Z,8.03
2023-03-20T23:25:12.228Z,8.01
2023-03-20T23:27:41.371Z,7.99
2023-03-20T23:30:08.952Z,7.98
2023-03-20T23:32:40.452Z,7.97
2023-03-20T23:35:08.548Z,7.96
2023-03-20T23:37:35.598Z,7.81
2023-03-20T23:40:02.303Z,7.75
2023-03-20T23:42:30.952Z,7.75
2023-03-20T23:45:04.436Z,7.65
2023-03-20T23:47:44.414Z,7.61
2023-03-20T23:50:20.760Z,7.65
2023-03-20T23:53:01.116Z,7.68
2023-03-20T23:55:35.449Z,7.73
2023-03-20T23:58:02.444Z,7.65
